createdAt,value
2023-02-23T14:06:20.284Z,14.16
2023-02-23T14:08:55.490Z,14.27
2023-02-23T14:11:35.904Z,14.42
2023-02-23T14:14:05.203Z,14.45
2023-02-23T14:16:33.495Z,14.78
2023-02-23T14:19:32.243Z,14.45
2023-02-23T14:22:05.676Z,14.13
2023-02-23T14:24:33.611Z,14.40
2023-02-23T14:27:39.877Z,14.45
2023-02-23T14:31:30.667Z,14.44
2023-02-23T14:33:39.545Z,14.46
2023-02-23T14:36:30.584Z,14.45
2023-02-23T14:39:21.138Z,14.48
2023-02-23T14:41:52.099Z,14.55
2023-02-23T14:44:29.574Z,14.47
2023-02-23T14:47:03.325Z,14.67
2023-02-23T14:49:35.934Z,14.61
2023-02-23T14:52:08.777Z,14.66
2023-02-23T14:54:40.063Z,14.73
2023-02-23T14:57:19.184Z,14.58
2023-02-23T14:59:52.785Z,14.72
2023-02-23T15:02:24.215Z,14.65
2023-02-23T15:04:52.818Z,14.66
2023-02-23T15:07:28.050Z,14.57
2023-02-23T15:09:59.723Z,14.59
2023-02-23T15:12:31.013Z,14.42
2023-02-23T15:15:02.030Z,14.23
2023-02-23T15:17:33.576Z,14.26
2023-02-23T15:20:15.904Z,14.35
2023-02-23T15:22:47.861Z,14.30
2023-02-23T15:25:20.962Z,14.20
2023-02-23T15:27:49.539Z,14.23
2023-02-23T15:30:31.761Z,13.79
2023-02-23T15:33:05.077Z,13.79
2023-02-23T15:35:44.519Z,13.60
2023-02-23T15:38:41.771Z,13.74
2023-02-23T15:41:15.410Z,13.52
2023-02-23T15:43:44.692Z,13.58
2023-02-23T15:46:24.310Z,13.53
2023-02-23T15:48:54.729Z,13.25
2023-02-23T15:51:30.754Z,13.18
2023-02-23T15:54:00.125Z,13.22
2023-02-23T15:56:31.587Z,13.20
2023-02-23T15:59:04.681Z,13.12
2023-02-23T16:01:33.504Z,13.13
2023-02-23T16:04:06.866Z,13.07
2023-02-23T16:06:36.624Z,12.96
2023-02-23T16:09:20.896Z,12.86
2023-02-23T16:11:53.345Z,12.80
2023-02-23T16:14:23.027Z,12.59
2023-02-23T16:17:08.707Z,12.61
2023-02-23T16:19:41.618Z,12.53
2023-02-23T16:22:21.556Z,12.33
2023-02-23T16:25:05.169Z,12.32
2023-02-23T16:27:34.806Z,12.29
2023-02-23T16:30:18.623Z,12.16
2023-02-23T16:32:46.959Z,12.06
2023-02-23T16:35:20.142Z,11.93
2023-02-23T16:37:56.831Z,11.86
2023-02-23T16:40:25.285Z,11.76
2023-02-23T16:42:59.761Z,11.68
2023-02-23T16:45:29.751Z,11.53
2023-02-23T16:48:02.517Z,11.36
2023-02-23T16:50:30.942Z,11.15
2023-02-23T16:53:00.418Z,10.98
2023-02-23T16:55:33.193Z,11.00
2023-02-23T16:58:05.128Z,10.90
2023-02-23T17:00:34.385Z,10.84
2023-02-23T17:03:05.689Z,10.72
2023-02-23T17:05:34.468Z,10.67
2023-02-23T17:08:02.970Z,10.60
2023-02-23T17:10:33.256Z,10.57
2023-02-23T17:13:05.832Z,10.54
2023-02-23T17:15:37.268Z,10.52
2023-02-23T17:18:06.095Z,10.53
2023-02-23T17:20:34.429Z,10.55
2023-02-23T17:23:03.945Z,10.54
2023-02-23T17:25:32.091Z,10.42
2023-02-23T17:28:02.481Z,10.37
2023-02-23T17:30:31.536Z,10.26
2023-02-23T17:33:01.224Z,10.14
2023-02-23T17:35:32.653Z,10.18
2023-02-23T17:38:01.387Z,10.11
2023-02-23T17:40:29.550Z,10.05
2023-02-23T17:42:59.413Z,9.91
2023-02-23T17:45:29.492Z,9.35
2023-02-23T17:47:58.158Z,9.49
2023-02-23T17:50:28.102Z,9.49
2023-02-23T17:52:56.556Z,9.27
2023-02-23T17:55:25.574Z,9.35
2023-02-23T17:57:53.839Z,9.38
2023-02-23T18:00:22.322Z,9.21
2023-02-23T18:02:51.771Z,8.96
2023-02-23T18:05:19.907Z,9.05
2023-02-23T18:07:48.633Z,8.88
2023-02-23T18:10:17.322Z,8.73
2023-02-23T18:12:45.507Z,8.50
2023-02-23T18:15:13.707Z,8.45
2023-02-23T18:17:41.712Z,8.56
2023-02-23T18:20:14.960Z,8.61
2023-02-23T18:22:43.350Z,8.68
2023-02-23T18:25:21.244Z,8.75
2023-02-23T18:27:51.933Z,8.58
2023-02-23T18:30:20.503Z,8.59
2023-02-23T18:32:48.787Z,8.47
2023-02-23T18:35:18.439Z,8.36
2023-02-23T18:37:46.390Z,8.39
2023-02-23T18:40:21.606Z,8.43
2023-02-23T18:42:49.651Z,8.27
2023-02-23T18:45:17.894Z,8.29
2023-02-23T18:47:45.806Z,8.37
2023-02-23T18:50:19.427Z,8.24
2023-02-23T18:52:51.025Z,8.36
2023-02-23T18:55:19.895Z,8.29
2023-02-23T18:57:48.248Z,8.32
2023-02-23T19:00:18.144Z,8.15
2023-02-23T19:02:47.552Z,8.03
2023-02-23T19:05:16.398Z,8.30
2023-02-23T19:07:44.326Z,8.33
2023-02-23T19:10:16.466Z,8.25
2023-02-23T19:12:44.638Z,8.22
2023-02-23T19:15:13.369Z,8.05
2023-02-23T19:17:41.330Z,8.09
2023-02-23T19:20:13.855Z,7.89
2023-02-23T19:22:42.727Z,8.03
2023-02-23T19:25:14.413Z,7.93
2023-02-23T19:27:44.284Z,7.98
2023-02-23T19:30:14.639Z,7.92
2023-02-23T19:32:43.592Z,7.75
2023-02-23T19:35:14.842Z,7.64
2023-02-23T19:37:48.574Z,7.72
2023-02-23T19:40:19.961Z,7.57
2023-02-23T19:42:50.129Z,7.53
2023-02-23T19:45:18.812Z,7.57
2023-02-23T19:47:46.730Z,7.54
2023-02-23T19:50:17.918Z,7.53
2023-02-23T19:52:46.248Z,7.50
2023-02-23T19:55:14.223Z,7.47
2023-02-23T19:57:42.612Z,7.38
2023-02-23T20:00:13.572Z,7.37
2023-02-23T20:02:43.794Z,7.42
2023-02-23T20:05:12.699Z,7.19
2023-02-23T20:07:41.497Z,7.25
2023-02-23T20:10:13.949Z,7.01
2023-02-23T20:12:42.012Z,7.14
2023-02-23T20:15:14.829Z,7.16
2023-02-23T20:17:42.911Z,7.23
2023-02-23T20:20:12.375Z,7.11
2023-02-23T20:22:42.268Z,6.96
2023-02-23T20:25:12.614Z,6.91
2023-02-23T20:27:41.504Z,7.08
2023-02-23T20:30:12.486Z,7.13
2023-02-23T20:32:40.572Z,7.22
2023-02-23T20:35:11.375Z,7.08
2023-02-23T20:37:39.299Z,6.88
2023-02-23T20:40:15.870Z,6.94
2023-02-23T20:42:44.581Z,6.99
2023-02-23T20:45:14.320Z,6.98
2023-02-23T20:47:43.094Z,6.88
2023-02-23T20:50:12.930Z,6.93
2023-02-23T20:52:42.286Z,6.85
2023-02-23T20:55:11.558Z,6.84
2023-02-23T20:57:39.782Z,6.95
2023-02-23T21:00:10.571Z,6.93
2023-02-23T21:02:41.664Z,6.83
2023-02-23T21:05:12.547Z,6.44
2023-02-23T21:07:41.077Z,6.75
2023-02-23T21:10:10.701Z,6.61
2023-02-23T21:12:38.669Z,6.66
2023-02-23T21:15:09.315Z,6.55
2023-02-23T21:17:40.584Z,6.42
2023-02-23T21:20:11.089Z,6.44
2023-02-23T21:22:39.827Z,6.36
2023-02-23T21:25:10.582Z,6.27
2023-02-23T21:27:38.815Z,6.48
2023-02-23T21:30:10.793Z,6.26
2023-02-23T21:32:42.291Z,6.30
2023-02-23T21:35:11.465Z,6.42
2023-02-23T21:37:39.587Z,6.32
2023-02-23T21:40:10.335Z,6.35
2023-02-23T21:42:38.433Z,6.41
2023-02-23T21:45:08.462Z,6.38
2023-02-23T21:47:37.083Z,6.36
2023-02-23T21:50:07.256Z,6.25
2023-02-23T21:52:35.325Z,6.19
2023-02-23T21:55:07.922Z,6.04
2023-02-23T21:57:41.059Z,6.01
2023-02-23T22:00:10.704Z,6.03
2023-02-23T22:02:41.184Z,6.09
2023-02-23T22:05:11.336Z,6.03
2023-02-23T22:07:39.363Z,5.94
2023-02-23T22:10:07.497Z,5.67
2023-02-23T22:12:35.480Z,5.73
2023-02-23T22:15:07.013Z,5.70
2023-02-23T22:17:36.150Z,5.73
2023-02-23T22:20:07.096Z,5.54
2023-02-23T22:22:36.645Z,5.50
2023-02-23T22:25:05.124Z,5.50
2023-02-23T22:27:33.476Z,5.46
2023-02-23T22:30:03.400Z,5.40
2023-02-23T22:32:32.924Z,5.57
2023-02-23T22:35:01.431Z,5.37
2023-02-23T22:37:31.688Z,5.14
2023-02-23T22:40:02.451Z,4.95
2023-02-23T22:42:30.406Z,4.60
2023-02-23T22:44:58.410Z,4.89
2023-02-23T22:47:26.543Z,5.02
2023-02-23T22:49:54.799Z,4.94
2023-02-23T22:52:22.732Z,5.10
2023-02-23T22:54:51.308Z,5.04
2023-02-23T22:57:20.604Z,4.83
2023-02-23T22:59:54.831Z,5.01
2023-02-23T23:02:23.283Z,4.81
2023-02-23T23:04:54.227Z,4.75
2023-02-23T23:07:22.195Z,4.80
2023-02-23T23:09:50.151Z,4.92
2023-02-23T23:12:18.255Z,4.81
2023-02-23T23:14:47.720Z,5.05
2023-02-23T23:17:16.321Z,5.00
2023-02-23T23:19:46.803Z,4.96
2023-02-23T23:22:17.487Z,4.90
2023-02-23T23:24:49.081Z,5.01
2023-02-23T23:27:18.357Z,5.02
2023-02-23T23:29:48.766Z,5.16
2023-02-23T23:32:18.351Z,4.82
2023-02-23T23:34:48.834Z,4.76
2023-02-23T23:37:17.986Z,4.86
2023-02-23T23:39:46.013Z,4.84
2023-02-23T23:42:14.085Z,4.38
2023-02-23T23:44:42.240Z,4.39
2023-02-23T23:47:12.933Z,4.52
2023-02-23T23:49:40.860Z,4.16
2023-02-23T23:52:09.181Z,4.19
2023-02-23T23:54:41.270Z,4.41
2023-02-23T23:57:11.500Z,4.22
2023-02-23T23:59:46.018Z,4.11
